createdAt,value
2023-05-06T00:00:26.803Z,100.00
2023-05-06T00:02:53.645Z,100.00
2023-05-06T00:05:21.751Z,100.00
2023-05-06T00:07:48.528Z,100.00
2023-05-06T00:10:15.792Z,100.00
2023-05-06T00:12:45.892Z,100.00
2023-05-06T00:15:12.904Z,100.00
2023-05-06T00:17:49.359Z,100.00
2023-05-06T00:20:16.303Z,100.00
2023-05-06T00:22:43.405Z,100.00
2023-05-06T00:25:10.617Z,100.00
2023-05-06T00:27:37.563Z,100.00
2023-05-06T00:30:05.137Z,100.00
2023-05-06T00:32:31.906Z,100.00
2023-05-06T00:35:00.135Z,100.00
2023-05-06T00:37:26.929Z,100.00
2023-05-06T00:39:53.673Z,100.00
2023-05-06T00:42:23.136Z,100.00
2023-05-06T00:44:51.172Z,100.00
2023-05-06T00:47:19.038Z,100.00
2023-05-06T00:49:48.556Z,100.00
2023-05-06T00:52:16.074Z,100.00
2023-05-06T00:54:45.778Z,100.00
2023-05-06T00:57:12.595Z,100.00
2023-05-06T00:59:40.756Z,100.00
2023-05-06T01:02:09.082Z,100.00
2023-05-06T01:04:36.335Z,100.00
2023-05-06T01:07:16.530Z,100.00
2023-05-06T01:09:57.326Z,100.00
2023-05-06T01:12:41.451Z,100.00
2023-05-06T01:15:14.895Z,100.00
2023-05-06T01:17:51.566Z,100.00
2023-05-06T01:20:21.285Z,100.00
2023-05-06T01:22:49.735Z,100.00
2023-05-06T01:25:22.025Z,100.00
2023-05-06T01:27:53.372Z,100.00
2023-05-06T01:30:24.884Z,100.00
2023-05-06T01:33:13.949Z,100.00
2023-05-06T01:35:59.935Z,100.00
2023-05-06T01:39:01.123Z,100.00
2023-05-06T01:41:33.934Z,100.00
2023-05-06T01:44:02.259Z,100.00
2023-05-06T01:46:32.738Z,100.00
2023-05-06T01:49:07.693Z,100.00
2023-05-06T01:51:34.811Z,100.00
2023-05-06T01:54:02.448Z,100.00
2023-05-06T01:56:32.695Z,100.00
2023-05-06T01:58:59.935Z,100.00
2023-05-06T02:01:27.136Z,100.00
2023-05-06T02:03:54.127Z,100.00
2023-05-06T02:06:21.239Z,100.00
2023-05-06T02:08:49.610Z,100.00
2023-05-06T02:11:16.739Z,100.00
2023-05-06T02:13:43.689Z,100.00
2023-05-06T02:16:11.010Z,100.00
2023-05-06T02:18:41.420Z,100.00
2023-05-06T02:21:09.980Z,100.00
2023-05-06T02:23:36.778Z,100.00
2023-05-06T02:26:04.575Z,100.00
2023-05-06T02:28:31.620Z,100.00
2023-05-06T02:30:59.002Z,100.00
2023-05-06T02:33:26.087Z,100.00
2023-05-06T02:35:56.123Z,100.00
2023-05-06T02:38:24.941Z,100.00
2023-05-06T02:40:53.102Z,100.00
2023-05-06T02:43:19.852Z,100.00
2023-05-06T02:45:46.610Z,100.00
2023-05-06T02:48:13.400Z,100.00
2023-05-06T02:50:41.072Z,100.00
2023-05-06T02:53:09.366Z,100.00
2023-05-06T02:55:36.477Z,100.00
2023-05-06T02:58:03.304Z,100.00
2023-05-06T03:00:30.274Z,100.00
2023-05-06T03:02:57.087Z,100.00
2023-05-06T03:05:26.972Z,100.00
2023-05-06T03:07:53.810Z,100.00
2023-05-06T03:10:20.627Z,100.00
2023-05-06T03:12:47.491Z,100.00
2023-05-06T03:15:18.049Z,100.00
2023-05-06T03:17:46.463Z,100.00
2023-05-06T03:20:14.114Z,100.00
2023-05-06T03:22:42.531Z,100.00
2023-05-06T03:25:10.111Z,100.00
2023-05-06T03:27:38.609Z,100.00
2023-05-06T03:30:06.383Z,100.00
2023-05-06T03:32:33.207Z,100.00
2023-05-06T03:34:59.983Z,100.00
2023-05-06T03:37:28.230Z,100.00
2023-05-06T03:39:58.059Z,100.00
2023-05-06T03:42:25.222Z,100.00
2023-05-06T03:44:53.914Z,100.00
2023-05-06T03:47:20.639Z,100.00
2023-05-06T03:49:47.569Z,100.00
2023-05-06T03:52:14.409Z,100.00
2023-05-06T03:54:41.175Z,100.00
2023-05-06T03:57:07.965Z,100.00
2023-05-06T03:59:34.815Z,100.00
2023-05-06T04:02:01.619Z,100.00
2023-05-06T04:04:28.399Z,100.00
2023-05-06T04:06:55.157Z,100.00
2023-05-06T04:09:21.985Z,100.00
2023-05-06T04:11:49.082Z,100.00
2023-05-06T04:14:15.918Z,100.00
2023-05-06T04:16:42.743Z,100.00
2023-05-06T04:19:09.526Z,100.00
2023-05-06T04:21:36.286Z,100.00
2023-05-06T04:24:03.720Z,100.00
2023-05-06T04:26:31.354Z,100.00
2023-05-06T04:28:58.088Z,100.00
2023-05-06T04:31:25.074Z,100.00
2023-05-06T04:33:53.499Z,100.00
2023-05-06T04:36:21.062Z,100.00
2023-05-06T04:38:47.898Z,100.00
2023-05-06T04:41:17.870Z,100.00
2023-05-06T04:43:44.678Z,100.00
2023-05-06T04:46:11.634Z,100.00
2023-05-06T04:48:39.137Z,100.00
2023-05-06T04:51:06.543Z,100.00
2023-05-06T04:53:33.331Z,100.00
2023-05-06T04:56:00.162Z,100.00
2023-05-06T04:58:27.059Z,100.00
2023-05-06T05:00:54.677Z,100.00
2023-05-06T05:03:21.649Z,100.00
2023-05-06T05:05:48.463Z,100.00
2023-05-06T05:08:15.590Z,100.00
2023-05-06T05:10:47.850Z,100.00
2023-05-06T05:13:14.750Z,100.00
2023-05-06T05:15:41.825Z,100.00
2023-05-06T05:18:08.915Z,100.00
2023-05-06T05:20:36.554Z,100.00
2023-05-06T05:23:03.794Z,100.00
2023-05-06T05:25:30.690Z,100.00
2023-05-06T05:27:57.457Z,100.00
2023-05-06T05:30:24.209Z,100.00
2023-05-06T05:32:51.100Z,100.00
2023-05-06T05:35:18.185Z,100.00
2023-05-06T05:37:44.937Z,100.00
2023-05-06T05:40:12.224Z,100.00
2023-05-06T05:42:42.404Z,100.00
2023-05-06T05:45:09.978Z,100.00
2023-05-06T05:47:36.914Z,100.00
2023-05-06T05:50:04.494Z,100.00
2023-05-06T05:52:31.403Z,100.00
2023-05-06T05:54:58.231Z,100.00
2023-05-06T05:57:25.338Z,100.00
2023-05-06T05:59:52.159Z,100.00
2023-05-06T06:02:19.024Z,100.00
2023-05-06T06:04:45.974Z,100.00
2023-05-06T06:07:12.944Z,100.00
2023-05-06T06:09:39.775Z,100.00
2023-05-06T06:12:06.674Z,100.00
2023-05-06T06:14:33.425Z,100.00
2023-05-06T06:17:01.396Z,100.00
2023-05-06T06:19:28.180Z,100.00
2023-05-06T06:21:55.028Z,100.00
2023-05-06T06:24:21.849Z,100.00
2023-05-06T06:26:48.618Z,100.00
2023-05-06T06:29:15.419Z,100.00
2023-05-06T06:31:42.766Z,100.00
2023-05-06T06:34:12.618Z,100.00
2023-05-06T06:36:44.965Z,100.00
2023-05-06T06:39:12.991Z,100.00
2023-05-06T06:41:40.114Z,100.00
2023-05-06T06:44:07.011Z,100.00
2023-05-06T06:46:34.320Z,100.00
2023-05-06T06:49:04.552Z,100.00
2023-05-06T06:51:31.878Z,100.00
2023-05-06T06:53:58.776Z,100.00
2023-05-06T06:56:25.726Z,100.00
2023-05-06T06:58:53.437Z,100.00
2023-05-06T07:01:20.456Z,100.00
2023-05-06T07:03:47.369Z,100.00
2023-05-06T07:06:14.253Z,100.00
2023-05-06T07:08:41.148Z,100.00
2023-05-06T07:11:07.934Z,100.00
2023-05-06T07:13:35.240Z,100.00
2023-05-06T07:16:02.138Z,100.00
2023-05-06T07:18:28.861Z,100.00
2023-05-06T07:20:55.788Z,100.00
2023-05-06T07:23:22.587Z,100.00
2023-05-06T07:25:49.503Z,100.00
2023-05-06T07:28:16.336Z,100.00
2023-05-06T07:30:43.528Z,100.00
2023-05-06T07:33:10.510Z,100.00
2023-05-06T07:35:37.739Z,100.00
2023-05-06T07:38:04.853Z,100.00
2023-05-06T07:40:31.795Z,100.00
2023-05-06T07:42:58.650Z,100.00
2023-05-06T07:45:25.611Z,100.00
2023-05-06T07:47:52.674Z,100.00
2023-05-06T07:50:19.834Z,100.00
2023-05-06T07:52:48.195Z,100.00
2023-05-06T07:55:15.041Z,100.00
2023-05-06T07:57:41.897Z,100.00
2023-05-06T08:00:10.373Z,100.00
2023-05-06T08:02:38.672Z,100.00
2023-05-06T08:05:07.990Z,100.00
2023-05-06T08:07:34.968Z,99.01
2023-05-06T08:10:01.967Z,97.11
2023-05-06T08:12:28.825Z,94.76
2023-05-06T08:14:55.862Z,95.15
2023-05-06T08:17:22.790Z,94.37
2023-05-06T08:19:49.768Z,91.21
2023-05-06T08:22:17.453Z,90.70
2023-05-06T08:24:45.573Z,86.55
2023-05-06T08:27:12.448Z,84.50
2023-05-06T08:29:39.750Z,89.57
2023-05-06T08:32:06.857Z,89.40
2023-05-06T08:34:34.874Z,87.02
2023-05-06T08:37:02.444Z,86.96
2023-05-06T08:39:30.661Z,86.95
2023-05-06T08:42:01.012Z,79.62
2023-05-06T08:44:28.029Z,77.02
2023-05-06T08:46:55.692Z,76.17
2023-05-06T08:49:22.931Z,78.62
2023-05-06T08:51:55.373Z,77.54
2023-05-06T08:54:26.434Z,78.72
2023-05-06T08:56:59.240Z,75.43
2023-05-06T08:59:30.326Z,75.10
2023-05-06T09:01:57.451Z,76.31
2023-05-06T09:04:24.739Z,78.02
2023-05-06T09:06:52.047Z,78.50
2023-05-06T09:09:19.128Z,77.40
2023-05-06T09:11:53.427Z,74.70
2023-05-06T09:14:21.882Z,73.88
2023-05-06T09:16:52.297Z,78.54
2023-05-06T09:19:22.396Z,76.57
2023-05-06T09:21:51.570Z,80.40
2023-05-06T09:24:19.510Z,77.59
2023-05-06T09:26:47.606Z,76.51
2023-05-06T09:29:14.665Z,74.56
2023-05-06T09:31:50.510Z,71.53
2023-05-06T09:34:17.998Z,77.06
2023-05-06T09:36:45.256Z,73.66
2023-05-06T09:39:12.028Z,71.94
2023-05-06T09:41:39.234Z,75.93
2023-05-06T09:44:06.197Z,73.03
2023-05-06T09:46:33.394Z,76.10
2023-05-06T09:49:02.210Z,73.88
2023-05-06T09:51:31.029Z,69.22
2023-05-06T09:53:59.284Z,70.10
2023-05-06T09:56:27.373Z,73.33
2023-05-06T09:58:55.905Z,71.19
2023-05-06T10:01:35.458Z,67.20
2023-05-06T10:04:12.660Z,67.79
2023-05-06T10:06:44.261Z,65.22
2023-05-06T10:09:11.951Z,69.20
2023-05-06T10:11:39.901Z,63.32
2023-05-06T10:14:07.812Z,69.45
2023-05-06T10:16:36.576Z,67.16
2023-05-06T10:19:06.510Z,63.43
2023-05-06T10:21:39.314Z,63.31
2023-05-06T10:24:11.654Z,67.07
2023-05-06T10:26:41.368Z,65.14
2023-05-06T10:29:11.791Z,66.18
2023-05-06T10:31:48.319Z,61.26
2023-05-06T10:34:19.520Z,64.15
2023-05-06T10:36:54.113Z,60.83
2023-05-06T10:39:22.958Z,61.44
2023-05-06T10:41:49.963Z,56.16
2023-05-06T10:44:16.776Z,60.48
2023-05-06T10:47:01.078Z,55.15
2023-05-06T10:49:27.998Z,56.90
2023-05-06T10:52:14.880Z,50.82
2023-05-06T10:54:50.834Z,54.02
2023-05-06T10:57:18.414Z,52.25
2023-05-06T10:59:47.468Z,54.12
2023-05-06T11:02:20.202Z,51.90
2023-05-06T11:04:59.674Z,48.43
2023-05-06T11:07:27.123Z,49.96
2023-05-06T11:10:07.987Z,50.13
2023-05-06T11:12:55.751Z,52.36
2023-05-06T11:15:43.166Z,48.25
2023-05-06T11:18:32.118Z,48.53
2023-05-06T11:21:08.508Z,43.88
2023-05-06T11:24:28.471Z,43.42
2023-05-06T11:26:58.370Z,43.27
2023-05-06T11:29:27.093Z,43.37
2023-05-06T11:31:54.096Z,41.99
2023-05-06T11:34:30.528Z,40.90
2023-05-06T11:37:06.530Z,41.47
2023-05-06T11:39:40.526Z,39.26
2023-05-06T11:42:08.965Z,39.22
2023-05-06T11:44:39.810Z,39.39
2023-05-06T11:47:09.900Z,38.69
2023-05-06T11:49:53.344Z,38.84
2023-05-06T11:52:21.003Z,38.60
2023-05-06T11:54:57.215Z,39.01
2023-05-06T11:57:25.225Z,38.49
2023-05-06T11:59:54.819Z,40.54
2023-05-06T12:02:21.857Z,41.11
2023-05-06T12:04:53.071Z,42.39
2023-05-06T12:07:20.263Z,42.53
2023-05-06T12:09:51.289Z,42.55
2023-05-06T12:12:24.826Z,42.97
2023-05-06T12:14:53.919Z,43.29
2023-05-06T12:17:21.178Z,43.52
2023-05-06T12:19:48.206Z,43.07
2023-05-06T12:22:20.069Z,43.51
2023-05-06T12:24:48.935Z,45.23
2023-05-06T12:27:35.716Z,45.90
2023-05-06T12:30:04.521Z,45.27
2023-05-06T12:32:32.232Z,45.09
2023-05-06T12:35:00.367Z,41.85
2023-05-06T12:37:30.557Z,41.51
2023-05-06T12:39:59.425Z,40.60
2023-05-06T12:42:27.554Z,39.76
2023-05-06T12:44:55.000Z,39.91
2023-05-06T12:47:26.086Z,39.15
2023-05-06T12:50:02.188Z,38.91
2023-05-06T12:52:30.732Z,39.50
2023-05-06T12:55:07.639Z,39.12
2023-05-06T12:57:38.722Z,37.64
2023-05-06T13:00:07.391Z,36.20
2023-05-06T13:02:35.210Z,36.06
2023-05-06T13:05:02.638Z,34.85
2023-05-06T13:07:29.431Z,34.39
2023-05-06T13:09:56.262Z,34.53
2023-05-06T13:12:23.112Z,33.65
2023-05-06T13:14:50.014Z,34.21
2023-05-06T13:17:16.985Z,33.49
2023-05-06T13:19:43.799Z,33.58
2023-05-06T13:22:10.564Z,33.05
2023-05-06T13:24:37.706Z,33.05
2023-05-06T13:27:04.523Z,33.25
2023-05-06T13:29:31.808Z,32.29
2023-05-06T13:32:00.980Z,33.74
2023-05-06T13:34:27.892Z,34.59
2023-05-06T13:36:56.675Z,34.39
2023-05-06T13:39:23.898Z,36.80
2023-05-06T13:41:51.660Z,37.97
2023-05-06T13:44:20.200Z,36.47
2023-05-06T13:46:51.934Z,35.03
2023-05-06T13:49:19.127Z,35.31
2023-05-06T13:51:46.137Z,37.34
2023-05-06T13:54:12.972Z,37.49
2023-05-06T13:56:39.798Z,38.99
2023-05-06T13:59:08.017Z,39.76
2023-05-06T14:01:35.230Z,41.04
2023-05-06T14:04:05.360Z,40.58
2023-05-06T14:06:32.258Z,40.57
2023-05-06T14:08:59.544Z,40.67
2023-05-06T14:11:26.662Z,40.77
2023-05-06T14:13:56.670Z,39.56
2023-05-06T14:16:23.574Z,38.59
2023-05-06T14:18:53.542Z,38.57
2023-05-06T14:21:20.907Z,39.47
2023-05-06T14:23:47.740Z,39.66
2023-05-06T14:26:14.584Z,40.96
2023-05-06T14:28:41.368Z,40.94
2023-05-06T14:31:08.238Z,41.24
2023-05-06T14:33:35.006Z,41.75
2023-05-06T14:36:03.351Z,42.61
2023-05-06T14:38:30.822Z,42.94
2023-05-06T14:40:59.343Z,43.39
2023-05-06T14:43:26.588Z,42.57
2023-05-06T14:45:53.665Z,42.09
2023-05-06T14:48:20.718Z,41.98
2023-05-06T14:50:47.453Z,41.04
2023-05-06T14:53:16.840Z,40.89
2023-05-06T14:55:45.132Z,40.81
2023-05-06T14:58:11.932Z,41.21
2023-05-06T15:00:38.692Z,41.39
2023-05-06T15:03:05.688Z,41.69
2023-05-06T15:05:32.556Z,40.69
2023-05-06T15:07:59.317Z,41.77
2023-05-06T15:10:26.197Z,41.69
2023-05-06T15:12:53.155Z,42.81
2023-05-06T15:15:20.489Z,43.13
2023-05-06T15:17:47.532Z,42.91
2023-05-06T15:20:14.422Z,42.16
2023-05-06T15:22:41.542Z,41.66
2023-05-06T15:25:12.310Z,41.42
2023-05-06T15:27:41.316Z,41.68
2023-05-06T15:30:08.805Z,41.64
2023-05-06T15:32:36.125Z,41.76
2023-05-06T15:35:04.829Z,41.60
2023-05-06T15:37:35.141Z,41.94
2023-05-06T15:40:02.252Z,42.71
2023-05-06T15:42:29.894Z,43.31
2023-05-06T15:44:58.038Z,44.03
2023-05-06T15:47:27.896Z,44.08
2023-05-06T15:50:10.930Z,44.21
2023-05-06T15:52:42.925Z,44.21
2023-05-06T15:55:13.373Z,44.51
2023-05-06T15:57:43.029Z,43.50
2023-05-06T16:00:11.077Z,44.01
2023-05-06T16:02:38.336Z,44.36
2023-05-06T16:05:06.290Z,44.31
2023-05-06T16:07:33.016Z,45.01
2023-05-06T16:09:59.777Z,45.13
2023-05-06T16:12:26.556Z,45.13
2023-05-06T16:14:53.519Z,44.84
2023-05-06T16:17:20.487Z,45.07
2023-05-06T16:19:47.207Z,44.80
2023-05-06T16:22:14.002Z,44.91
2023-05-06T16:24:40.834Z,45.88
2023-05-06T16:27:07.688Z,45.88
2023-05-06T16:29:34.411Z,46.26
2023-05-06T16:32:01.307Z,45.75
2023-05-06T16:34:28.129Z,45.80
2023-05-06T16:36:55.029Z,46.12
2023-05-06T16:39:21.967Z,46.69
2023-05-06T16:41:48.768Z,46.60
2023-05-06T16:44:15.641Z,45.94
2023-05-06T16:46:42.496Z,45.87
2023-05-06T16:49:09.459Z,46.04
2023-05-06T16:51:36.516Z,46.58
2023-05-06T16:54:03.607Z,46.29
2023-05-06T16:56:40.107Z,46.89
2023-05-06T16:59:15.252Z,47.65
2023-05-06T17:01:42.389Z,48.22
2023-05-06T17:04:09.155Z,47.56
2023-05-06T17:06:36.282Z,47.72
2023-05-06T17:09:04.161Z,48.09
2023-05-06T17:11:30.885Z,48.10
2023-05-06T17:13:57.574Z,47.77
2023-05-06T17:16:24.477Z,48.00
2023-05-06T17:18:51.765Z,48.62
2023-05-06T17:21:20.283Z,48.55
2023-05-06T17:23:47.544Z,48.86
2023-05-06T17:26:16.590Z,48.24
2023-05-06T17:28:43.707Z,48.30
2023-05-06T17:31:10.510Z,48.34
2023-05-06T17:33:37.403Z,48.52
2023-05-06T17:36:06.854Z,48.64
2023-05-06T17:38:34.502Z,48.81
2023-05-06T17:41:02.433Z,49.15
2023-05-06T17:43:29.348Z,49.43
2023-05-06T17:45:56.429Z,49.33
2023-05-06T17:48:23.321Z,49.13
2023-05-06T17:50:50.136Z,49.28
2023-05-06T17:53:17.067Z,49.54
2023-05-06T17:55:43.974Z,50.11
2023-05-06T17:58:10.892Z,49.66
2023-05-06T18:00:41.019Z,49.68
2023-05-06T18:03:08.246Z,50.80
2023-05-06T18:05:35.836Z,50.48
2023-05-06T18:08:05.191Z,51.02
2023-05-06T18:10:32.228Z,50.44
2023-05-06T18:12:59.280Z,51.30
2023-05-06T18:15:26.484Z,51.79
2023-05-06T18:17:53.407Z,54.68
2023-05-06T18:20:21.417Z,57.01
2023-05-06T18:22:48.880Z,58.13
2023-05-06T18:25:15.780Z,59.44
2023-05-06T18:27:42.835Z,60.33
2023-05-06T18:30:10.072Z,62.25
2023-05-06T18:32:37.329Z,63.12
2023-05-06T18:35:04.528Z,63.90
2023-05-06T18:37:31.405Z,65.19
2023-05-06T18:39:58.349Z,65.92
2023-05-06T18:42:27.489Z,65.69
2023-05-06T18:44:54.579Z,66.05
2023-05-06T18:47:25.532Z,66.26
2023-05-06T18:49:53.568Z,66.79
2023-05-06T18:52:21.218Z,66.75
2023-05-06T18:54:48.021Z,67.79
2023-05-06T18:57:14.983Z,68.53
2023-05-06T18:59:42.064Z,69.35
2023-05-06T19:02:08.989Z,70.67
2023-05-06T19:04:36.019Z,71.56
2023-05-06T19:07:03.213Z,71.55
2023-05-06T19:09:32.779Z,72.39
2023-05-06T19:11:59.788Z,73.99
2023-05-06T19:14:26.737Z,74.50
2023-05-06T19:16:53.779Z,74.38
2023-05-06T19:19:21.478Z,74.54
2023-05-06T19:21:48.332Z,73.96
2023-05-06T19:24:15.936Z,74.22
2023-05-06T19:26:42.762Z,74.18
2023-05-06T19:29:09.875Z,74.22
2023-05-06T19:31:36.731Z,74.70
2023-05-06T19:34:03.923Z,75.38
2023-05-06T19:36:31.655Z,75.54
2023-05-06T19:38:58.589Z,76.01
2023-05-06T19:41:25.949Z,76.82
2023-05-06T19:43:53.045Z,77.57
2023-05-06T19:46:20.274Z,78.29
2023-05-06T19:48:47.404Z,78.82
2023-05-06T19:51:14.212Z,79.46
2023-05-06T19:53:41.035Z,81.06
2023-05-06T19:56:13.414Z,81.12
2023-05-06T19:58:40.490Z,82.11
2023-05-06T20:01:07.641Z,82.50
2023-05-06T20:03:35.752Z,82.31
2023-05-06T20:06:04.077Z,81.81
2023-05-06T20:08:31.064Z,82.80
2023-05-06T20:11:01.486Z,83.84
2023-05-06T20:13:34.413Z,84.40
2023-05-06T20:16:01.921Z,84.39
2023-05-06T20:18:28.793Z,84.12
2023-05-06T20:20:56.201Z,84.66
2023-05-06T20:23:25.720Z,85.06
2023-05-06T20:25:55.616Z,85.59
2023-05-06T20:28:26.816Z,85.96
2023-05-06T20:30:55.570Z,85.77
2023-05-06T20:33:22.399Z,85.54
2023-05-06T20:35:49.548Z,85.70
2023-05-06T20:38:16.854Z,86.07
2023-05-06T20:40:43.719Z,87.33
2023-05-06T20:43:10.517Z,87.77
2023-05-06T20:45:37.712Z,87.77
2023-05-06T20:48:04.984Z,88.19
2023-05-06T20:50:31.870Z,88.32
2023-05-06T20:53:01.516Z,89.03
2023-05-06T20:55:28.372Z,90.10
2023-05-06T20:57:55.358Z,90.54
2023-05-06T21:00:22.470Z,90.12
2023-05-06T21:02:49.647Z,87.79
2023-05-06T21:05:16.757Z,87.14
2023-05-06T21:07:44.119Z,87.26
2023-05-06T21:10:11.426Z,87.48
2023-05-06T21:12:41.037Z,89.54
2023-05-06T21:15:09.041Z,91.34
2023-05-06T21:17:36.519Z,91.05
2023-05-06T21:20:04.915Z,92.03
2023-05-06T21:22:33.182Z,93.37
2023-05-06T21:25:01.063Z,94.38
2023-05-06T21:27:28.010Z,93.75
2023-05-06T21:29:54.798Z,92.80
2023-05-06T21:32:21.693Z,92.08
2023-05-06T21:34:48.705Z,92.23
2023-05-06T21:37:19.008Z,92.14
2023-05-06T21:39:46.240Z,92.21
2023-05-06T21:42:18.672Z,93.14
2023-05-06T21:44:45.468Z,94.06
2023-05-06T21:47:12.281Z,93.97
2023-05-06T21:49:41.786Z,93.70
2023-05-06T21:52:08.609Z,94.73
2023-05-06T21:54:35.511Z,94.94
2023-05-06T21:57:02.535Z,95.15
2023-05-06T21:59:29.281Z,95.24
2023-05-06T22:01:56.076Z,94.57
2023-05-06T22:04:22.965Z,94.36
2023-05-06T22:06:50.622Z,96.71
2023-05-06T22:09:17.474Z,97.71
2023-05-06T22:11:44.582Z,97.86
2023-05-06T22:14:11.521Z,97.96
2023-05-06T22:16:39.428Z,97.62
2023-05-06T22:19:06.750Z,96.19
2023-05-06T22:21:34.963Z,95.99
2023-05-06T22:24:01.891Z,95.87
2023-05-06T22:26:28.728Z,96.45
2023-05-06T22:28:56.484Z,96.75
2023-05-06T22:31:24.507Z,97.85
2023-05-06T22:33:55.213Z,98.92
2023-05-06T22:36:22.224Z,98.72
2023-05-06T22:38:48.996Z,98.31
2023-05-06T22:41:17.566Z,97.99
2023-05-06T22:43:44.450Z,98.31
2023-05-06T22:46:11.339Z,97.99
2023-05-06T22:48:38.269Z,98.29
2023-05-06T22:51:05.211Z,98.08
2023-05-06T22:53:32.561Z,98.08
2023-05-06T22:55:59.552Z,97.39
2023-05-06T22:58:26.345Z,97.35
2023-05-06T23:00:54.968Z,98.03
2023-05-06T23:03:22.551Z,98.46
2023-05-06T23:05:49.702Z,99.49
2023-05-06T23:08:17.111Z,100.00
2023-05-06T23:10:46.696Z,100.00
2023-05-06T23:13:13.806Z,100.00
2023-05-06T23:15:40.826Z,100.00
2023-05-06T23:18:08.074Z,100.00
2023-05-06T23:20:34.885Z,100.00
2023-05-06T23:23:02.041Z,100.00
2023-05-06T23:25:28.920Z,100.00
2023-05-06T23:27:56.188Z,100.00
2023-05-06T23:30:27.536Z,100.00
2023-05-06T23:32:54.374Z,100.00
2023-05-06T23:35:21.141Z,100.00
2023-05-06T23:37:48.397Z,100.00
2023-05-06T23:40:15.406Z,100.00
2023-05-06T23:42:42.142Z,100.00
2023-05-06T23:45:12.579Z,100.00
2023-05-06T23:47:39.960Z,100.00
2023-05-06T23:50:07.265Z,100.00
2023-05-06T23:52:34.199Z,100.00
2023-05-06T23:55:01.073Z,100.00
2023-05-06T23:57:27.880Z,100.00
2023-05-06T23:59:54.921Z,100.00
